createdAt,value
2022-11-15T00:00:31.222Z,59.20
2022-11-15T00:03:52.546Z,73.60
2022-11-15T00:07:33.174Z,66.32
2022-11-15T00:11:00.944Z,56.07
2022-11-15T00:14:22.338Z,66.30
2022-11-15T00:17:43.565Z,59.85
2022-11-15T00:21:07.637Z,42.78
2022-11-15T00:24:28.454Z,41.28
2022-11-15T00:27:49.364Z,57.88
2022-11-15T00:31:13.392Z,60.95
2022-11-15T00:34:34.291Z,69.30
2022-11-15T00:37:55.472Z,83.88
2022-11-15T00:41:16.557Z,76.65
2022-11-15T00:44:37.518Z,66.30
2022-11-15T00:47:58.900Z,139.63
2022-11-15T00:51:20.189Z,214.82
2022-11-15T00:54:41.092Z,216.30
2022-11-15T00:58:02.049Z,75.50
2022-11-15T01:01:23.427Z,141.82
2022-11-15T01:04:44.745Z,104.68
2022-11-15T01:08:06.031Z,111.75
2022-11-15T01:11:27.217Z,83.57
2022-11-15T01:14:48.123Z,79.50
2022-11-15T01:18:09.018Z,103.93
2022-11-15T01:21:29.777Z,59.13
2022-11-15T01:24:51.704Z,46.10
2022-11-15T01:28:12.868Z,29.45
2022-11-15T01:31:33.999Z,76.00
2022-11-15T01:34:55.116Z,120.15
2022-11-15T01:38:15.897Z,124.85
2022-11-15T01:41:37.216Z,234.93
2022-11-15T01:44:58.276Z,116.73
2022-11-15T01:48:19.868Z,119.18
2022-11-15T01:51:41.063Z,58.42
2022-11-15T01:55:08.628Z,77.23
2022-11-15T01:58:29.923Z,41.28
2022-11-15T02:01:51.903Z,53.10
2022-11-15T02:05:13.299Z,90.35
2022-11-15T02:08:34.361Z,58.80
2022-11-15T02:11:56.911Z,52.58
2022-11-15T02:15:18.275Z,31.35
2022-11-15T02:18:46.055Z,53.90
2022-11-15T02:22:22.483Z,78.53
2022-11-15T02:26:05.228Z,106.85
2022-11-15T02:29:42.511Z,102.75
2022-11-15T02:33:33.428Z,54.10
2022-11-15T02:37:17.458Z,46.47
2022-11-15T02:40:57.305Z,39.63
2022-11-15T02:44:27.256Z,69.53
2022-11-15T02:47:53.093Z,48.13
2022-11-15T02:51:15.745Z,35.60
2022-11-15T02:54:36.883Z,32.75
2022-11-15T02:58:25.568Z,32.00
2022-11-15T03:02:01.537Z,34.90
2022-11-15T03:05:55.690Z,86.78
2022-11-15T03:09:34.469Z,131.87
2022-11-15T03:13:08.852Z,43.85
2022-11-15T03:16:52.221Z,42.53
2022-11-15T03:20:16.779Z,31.38
2022-11-15T03:23:39.682Z,63.20
2022-11-15T03:27:02.780Z,74.47
2022-11-15T03:30:23.870Z,90.85
2022-11-15T03:33:45.189Z,90.43
2022-11-15T03:37:08.096Z,106.80
2022-11-15T03:40:40.566Z,76.07
2022-11-15T03:44:11.120Z,101.30
2022-11-15T03:47:44.619Z,144.07
2022-11-15T03:51:06.438Z,107.43
2022-11-15T03:54:27.493Z,70.93
2022-11-15T03:57:51.171Z,156.70
2022-11-15T04:01:12.596Z,89.93
2022-11-15T04:04:33.613Z,157.57
2022-11-15T04:07:54.509Z,189.70
2022-11-15T04:11:15.756Z,137.30
2022-11-15T04:14:36.454Z,106.07
2022-11-15T04:17:58.500Z,127.00
2022-11-15T04:21:37.702Z,55.13
2022-11-15T04:25:00.698Z,168.15
2022-11-15T04:28:21.963Z,54.58
2022-11-15T04:31:43.037Z,130.32
2022-11-15T04:35:04.384Z,80.65
2022-11-15T04:38:25.450Z,65.88
2022-11-15T04:41:46.216Z,87.80
2022-11-15T04:45:07.536Z,105.67
2022-11-15T04:48:28.716Z,91.47
2022-11-15T04:51:49.756Z,127.18
2022-11-15T04:55:11.935Z,75.55
2022-11-15T04:58:32.969Z,72.43
2022-11-15T05:01:54.055Z,81.63
2022-11-15T05:05:15.111Z,75.03
2022-11-15T05:08:35.999Z,56.50
2022-11-15T05:11:57.321Z,78.82
2022-11-15T05:15:18.307Z,120.05
2022-11-15T05:18:41.696Z,88.13
2022-11-15T05:22:03.065Z,82.15
2022-11-15T05:25:24.215Z,77.78
2022-11-15T05:28:45.691Z,101.70
2022-11-15T05:32:07.325Z,63.93
2022-11-15T05:35:35.459Z,92.57
2022-11-15T05:38:56.620Z,87.55
2022-11-15T05:42:17.940Z,88.40
2022-11-15T05:45:39.043Z,121.72
2022-11-15T05:49:00.494Z,90.78
2022-11-15T05:52:26.661Z,99.78
2022-11-15T05:55:48.565Z,94.20
2022-11-15T05:59:10.838Z,97.53
2022-11-15T06:02:31.977Z,89.07
2022-11-15T06:05:53.252Z,83.78
2022-11-15T06:09:14.743Z,94.55
2022-11-15T06:13:00.322Z,81.85
2022-11-15T06:16:21.576Z,64.40
2022-11-15T06:19:42.621Z,68.07
2022-11-15T06:23:05.958Z,77.22
2022-11-15T06:26:27.387Z,111.40
2022-11-15T06:29:48.578Z,85.03
2022-11-15T06:33:10.371Z,66.25
2022-11-15T06:36:31.602Z,87.95
2022-11-15T06:39:52.758Z,73.32
2022-11-15T06:43:13.885Z,54.93
2022-11-15T06:46:34.994Z,48.08
2022-11-15T06:49:56.611Z,60.40
2022-11-15T06:53:18.281Z,35.15
2022-11-15T06:56:39.017Z,36.85
2022-11-15T07:00:00.133Z,35.80
2022-11-15T07:03:21.610Z,34.65
2022-11-15T07:06:42.920Z,26.70
2022-11-15T07:10:05.216Z,26.95
2022-11-15T07:13:27.473Z,30.02
2022-11-15T07:16:48.410Z,23.35
2022-11-15T07:20:09.859Z,26.80
2022-11-15T07:23:31.465Z,24.65
2022-11-15T07:26:52.620Z,32.42
2022-11-15T07:30:16.752Z,25.45
2022-11-15T07:33:37.986Z,32.93
2022-11-15T07:36:59.064Z,28.45
2022-11-15T07:40:20.066Z,28.55
2022-11-15T07:43:41.494Z,29.00
2022-11-15T07:47:02.857Z,28.43
2022-11-15T07:50:25.364Z,25.75
2022-11-15T07:53:46.670Z,25.02
2022-11-15T07:57:10.201Z,23.83
2022-11-15T08:00:31.937Z,27.87
2022-11-15T08:03:53.075Z,24.90
2022-11-15T08:07:14.045Z,24.60
2022-11-15T08:10:40.563Z,23.90
2022-11-15T08:14:02.180Z,24.60
2022-11-15T08:17:27.051Z,24.05
2022-11-15T08:20:53.097Z,25.67
2022-11-15T08:24:14.397Z,29.25
2022-11-15T08:27:37.163Z,35.00
2022-11-15T08:30:59.068Z,35.20
2022-11-15T08:34:20.398Z,33.55
2022-11-15T08:37:41.491Z,32.42
2022-11-15T08:41:05.595Z,31.73
2022-11-15T08:44:27.216Z,44.97
2022-11-15T08:47:53.789Z,25.58
2022-11-15T08:51:16.121Z,30.10
2022-11-15T08:54:40.117Z,30.27
2022-11-15T08:58:01.071Z,28.67
2022-11-15T09:01:22.613Z,31.25
2022-11-15T09:04:44.646Z,34.20
2022-11-15T09:08:25.028Z,29.80
2022-11-15T09:11:47.741Z,31.50
2022-11-15T09:15:09.738Z,26.90
2022-11-15T09:18:34.351Z,28.60
2022-11-15T09:21:56.144Z,27.77
2022-11-15T09:25:19.881Z,37.43
2022-11-15T09:28:43.471Z,28.43
2022-11-15T09:32:11.429Z,29.92
2022-11-15T09:35:32.741Z,34.83
2022-11-15T09:38:54.448Z,29.37
2022-11-15T09:42:46.012Z,28.27
2022-11-15T09:46:38.331Z,38.92
2022-11-15T09:50:23.193Z,34.08
2022-11-15T09:54:30.375Z,29.45
2022-11-15T09:57:16.631Z,31.83
2022-11-15T10:00:49.084Z,33.05
2022-11-15T10:03:51.896Z,33.30
2022-11-15T10:07:22.331Z,28.35
2022-11-15T10:10:42.607Z,28.98
2022-11-15T10:13:57.461Z,24.37
2022-11-15T10:17:37.586Z,24.90
2022-11-15T10:20:59.190Z,29.10
2022-11-15T10:24:02.351Z,29.10
2022-11-15T10:27:14.064Z,30.25
2022-11-15T10:30:19.347Z,31.00
2022-11-15T10:33:32.794Z,30.75
2022-11-15T10:36:35.461Z,34.33
2022-11-15T10:39:38.340Z,30.52
2022-11-15T10:42:41.029Z,35.03
2022-11-15T10:45:45.639Z,31.57
2022-11-15T10:48:48.090Z,32.58
2022-11-15T10:51:59.726Z,30.92
2022-11-15T10:55:24.878Z,31.13
2022-11-15T10:58:35.561Z,32.87
2022-11-15T11:01:47.462Z,32.25
2022-11-15T11:04:51.944Z,34.90
2022-11-15T11:08:00.178Z,32.50
2022-11-15T11:11:08.785Z,34.57
2022-11-15T11:14:23.450Z,35.77
2022-11-15T11:17:41.917Z,39.22
2022-11-15T11:20:52.131Z,35.15
2022-11-15T11:24:04.596Z,41.25
2022-11-15T11:27:41.054Z,40.57
2022-11-15T11:30:57.308Z,32.87
2022-11-15T11:34:43.626Z,37.90
2022-11-15T11:38:23.797Z,35.47
2022-11-15T11:42:02.442Z,36.75
2022-11-15T11:45:11.010Z,38.27
2022-11-15T11:48:15.894Z,35.40
2022-11-15T11:51:18.870Z,35.17
2022-11-15T11:54:49.267Z,39.15
2022-11-15T11:57:57.839Z,33.63
2022-11-15T12:01:12.737Z,37.73
2022-11-15T12:04:16.937Z,35.63
2022-11-15T12:07:35.672Z,32.20
2022-11-15T12:14:27.690Z,35.13
2022-11-15T12:17:33.193Z,34.00
2022-11-15T12:20:43.827Z,29.10
2022-11-15T12:23:55.378Z,28.98
2022-11-15T12:27:33.463Z,35.63
2022-11-15T12:30:49.174Z,33.10
2022-11-15T12:33:57.401Z,31.80
2022-11-15T12:37:00.017Z,28.25
2022-11-15T12:40:19.629Z,30.02
2022-11-15T12:43:39.792Z,30.55
2022-11-15T12:46:42.330Z,28.07
2022-11-15T12:49:46.276Z,28.30
2022-11-15T12:53:23.737Z,28.65
2022-11-15T12:56:26.470Z,29.65
2022-11-15T13:00:08.265Z,28.73
2022-11-15T13:03:19.815Z,33.70
2022-11-15T13:06:42.209Z,31.50
2022-11-15T13:09:44.917Z,32.17
2022-11-15T13:12:47.556Z,34.13
2022-11-15T13:15:59.603Z,27.77
2022-11-15T13:19:06.677Z,32.23
2022-11-15T13:22:30.398Z,29.20
2022-11-15T13:25:52.046Z,24.83
2022-11-15T13:28:56.811Z,29.42
2022-11-15T13:31:59.378Z,29.88
2022-11-15T13:35:02.662Z,29.37
2022-11-15T13:38:06.578Z,29.30
2022-11-15T13:41:20.030Z,32.75
2022-11-15T13:44:27.959Z,33.40
2022-11-15T13:47:32.670Z,34.72
2022-11-15T13:50:39.355Z,33.00
2022-11-15T13:53:47.731Z,34.67
2022-11-15T13:56:57.022Z,37.60
2022-11-15T14:00:07.002Z,38.03
2022-11-15T14:03:22.023Z,34.17
2022-11-15T14:06:28.109Z,34.37
2022-11-15T14:09:33.985Z,38.07
2022-11-15T14:12:37.132Z,41.63
2022-11-15T14:15:40.792Z,40.13
2022-11-15T14:18:53.824Z,40.78
2022-11-15T14:22:25.494Z,39.07
2022-11-15T14:25:30.677Z,35.45
2022-11-15T14:28:38.355Z,34.50
2022-11-15T14:31:43.858Z,34.28
2022-11-15T14:34:47.700Z,36.13
2022-11-15T14:37:50.569Z,34.60
2022-11-15T14:40:54.796Z,34.20
2022-11-15T14:43:57.310Z,40.08
2022-11-15T14:46:59.747Z,37.25
2022-11-15T14:50:03.035Z,126.47
2022-11-15T14:53:06.339Z,120.90
2022-11-15T14:56:09.632Z,127.35
2022-11-15T14:59:12.274Z,91.60
2022-11-15T15:02:21.589Z,92.40
2022-11-15T15:05:30.947Z,69.80
2022-11-15T15:08:33.721Z,71.33
2022-11-15T15:11:36.346Z,64.82
2022-11-15T15:14:39.040Z,70.50
2022-11-15T15:17:41.714Z,65.10
2022-11-15T15:20:48.799Z,66.23
2022-11-15T15:23:54.962Z,58.57
2022-11-15T15:26:57.326Z,56.63
2022-11-15T15:29:59.733Z,55.50
2022-11-15T15:33:02.181Z,66.03
2022-11-15T15:36:04.809Z,86.80
2022-11-15T15:39:11.404Z,78.47
2022-11-15T15:42:13.997Z,83.68
2022-11-15T15:45:18.074Z,95.65
2022-11-15T15:48:20.823Z,98.40
2022-11-15T15:51:23.760Z,79.17
2022-11-15T15:54:26.460Z,71.37
2022-11-15T15:57:29.122Z,64.40
2022-11-15T16:00:39.279Z,59.45
2022-11-15T16:03:41.610Z,54.47
2022-11-15T16:06:45.481Z,51.10
2022-11-15T16:10:03.288Z,48.70
2022-11-15T16:13:05.732Z,45.92
2022-11-15T16:16:13.985Z,48.53
2022-11-15T16:19:16.448Z,59.30
2022-11-15T16:22:18.907Z,81.77
2022-11-15T16:25:21.569Z,91.50
2022-11-15T16:28:33.795Z,98.18
2022-11-15T16:31:37.549Z,87.75
2022-11-15T16:34:43.836Z,78.03
2022-11-15T16:37:48.734Z,76.73
2022-11-15T16:40:53.401Z,68.47
2022-11-15T16:43:55.779Z,64.90
2022-11-15T16:46:58.235Z,61.08
2022-11-15T16:50:00.799Z,59.03
2022-11-15T16:53:03.180Z,50.30
2022-11-15T16:56:18.015Z,49.67
2022-11-15T16:59:20.980Z,56.05
2022-11-15T17:02:23.532Z,60.53
2022-11-15T17:05:28.660Z,58.55
2022-11-15T17:08:31.530Z,57.67
2022-11-15T17:11:34.890Z,52.10
2022-11-15T17:14:37.530Z,55.92
2022-11-15T17:17:40.842Z,69.47
2022-11-15T17:20:44.398Z,67.28
2022-11-15T17:23:47.512Z,69.33
2022-11-15T17:26:50.142Z,70.53
2022-11-15T17:29:52.966Z,71.40
2022-11-15T17:32:56.858Z,80.38
2022-11-15T17:36:04.831Z,72.95
2022-11-15T17:39:07.535Z,61.80
2022-11-15T17:42:10.088Z,59.30
2022-11-15T17:45:12.770Z,56.55
2022-11-15T17:48:15.363Z,62.75
2022-11-15T17:51:18.973Z,65.00
2022-11-15T17:54:21.447Z,63.77
2022-11-15T17:57:24.189Z,62.60
2022-11-15T18:00:29.135Z,60.10
2022-11-15T18:03:35.381Z,62.05
2022-11-15T18:06:38.379Z,63.28
2022-11-15T18:09:43.999Z,54.13
2022-11-15T18:12:46.585Z,57.50
2022-11-15T18:16:02.523Z,58.95
2022-11-15T18:19:09.205Z,67.07
2022-11-15T18:22:11.854Z,67.73
2022-11-15T18:25:16.027Z,65.43
2022-11-15T18:28:18.375Z,67.90
2022-11-15T18:31:27.165Z,73.35
2022-11-15T18:34:32.622Z,58.17
2022-11-15T18:37:35.259Z,53.90
2022-11-15T18:40:38.247Z,51.57
2022-11-15T18:43:41.152Z,52.88
2022-11-15T18:46:45.176Z,53.78
2022-11-15T18:49:48.110Z,58.63
2022-11-15T18:52:50.647Z,56.93
2022-11-15T18:55:53.006Z,56.70
2022-11-15T18:58:58.050Z,59.67
2022-11-15T19:02:00.430Z,62.45
2022-11-15T19:05:03.395Z,75.70
2022-11-15T19:08:06.101Z,71.43
2022-11-15T19:11:16.901Z,71.07
2022-11-15T19:14:24.098Z,68.90
2022-11-15T19:17:27.954Z,64.57
2022-11-15T19:20:31.088Z,61.03
2022-11-15T19:23:38.828Z,60.83
2022-11-15T19:26:41.990Z,61.50
2022-11-15T19:29:44.611Z,62.42
2022-11-15T19:32:47.217Z,63.80
2022-11-15T19:35:49.686Z,70.67
2022-11-15T19:38:53.877Z,81.20
2022-11-15T19:41:56.998Z,76.03
2022-11-15T19:44:59.618Z,75.50
2022-11-15T19:48:02.078Z,82.93
2022-11-15T19:51:08.733Z,79.43
2022-11-15T19:54:11.444Z,75.57
2022-11-15T19:57:13.948Z,73.85
2022-11-15T20:00:17.473Z,88.25
2022-11-15T20:03:20.098Z,94.63
2022-11-15T20:06:28.374Z,99.65
2022-11-15T20:09:30.878Z,100.97
2022-11-15T20:12:33.286Z,77.70
2022-11-15T20:15:35.934Z,67.13
2022-11-15T20:18:38.457Z,62.83
2022-11-15T20:21:42.254Z,59.92
2022-11-15T20:24:44.690Z,66.00
2022-11-15T20:27:47.256Z,76.57
2022-11-15T20:30:56.906Z,71.33
2022-11-15T20:33:59.692Z,63.53
2022-11-15T20:37:02.407Z,60.25
2022-11-15T20:40:05.684Z,61.45
2022-11-15T20:43:13.063Z,62.27
2022-11-15T20:46:15.622Z,60.10
2022-11-15T20:49:28.417Z,59.70
2022-11-15T20:52:31.257Z,58.50
2022-11-15T20:55:34.182Z,61.08
2022-11-15T20:58:37.544Z,63.87
2022-11-15T21:01:40.388Z,58.72
2022-11-15T21:04:42.981Z,63.25
2022-11-15T21:07:45.729Z,62.85
2022-11-15T21:11:10.010Z,57.20
2022-11-15T21:14:12.452Z,56.80
2022-11-15T21:17:16.356Z,53.97
2022-11-15T21:20:19.186Z,56.63
2022-11-15T21:23:21.575Z,64.22
2022-11-15T21:26:24.007Z,61.33
2022-11-15T21:29:26.879Z,62.77
2022-11-15T21:32:29.919Z,61.83
2022-11-15T21:35:33.028Z,58.20
2022-11-15T21:38:35.852Z,57.13
2022-11-15T21:41:38.710Z,60.00
2022-11-15T21:44:41.089Z,56.50
2022-11-15T21:47:46.345Z,52.05
2022-11-15T21:50:59.030Z,50.80
2022-11-15T21:54:01.861Z,51.95
2022-11-15T21:57:04.272Z,54.37
2022-11-15T22:00:25.994Z,53.67
2022-11-15T22:03:28.866Z,50.75
2022-11-15T22:06:31.160Z,53.05
2022-11-15T22:09:33.602Z,56.08
2022-11-15T22:12:37.011Z,59.07
2022-11-15T22:15:39.435Z,59.13
2022-11-15T22:18:42.310Z,58.30
2022-11-15T22:21:44.952Z,52.97
2022-11-15T22:24:47.567Z,57.37
2022-11-15T22:27:50.123Z,56.33
2022-11-15T22:30:55.406Z,64.20
2022-11-15T22:33:57.816Z,58.90
2022-11-15T22:37:19.682Z,63.23
2022-11-15T22:40:23.683Z,56.85
2022-11-15T22:43:27.331Z,59.97
2022-11-15T22:46:30.348Z,59.53
2022-11-15T22:49:32.868Z,54.93
2022-11-15T22:52:35.680Z,57.83
2022-11-15T22:55:42.036Z,54.53
2022-11-15T22:58:44.581Z,53.72
2022-11-15T23:01:47.188Z,51.97
2022-11-15T23:04:49.838Z,49.03
2022-11-15T23:07:52.321Z,50.95
2022-11-15T23:11:14.448Z,52.90
2022-11-15T23:14:36.781Z,50.95
2022-11-15T23:17:59.174Z,47.65
2022-11-15T23:21:42.871Z,49.63
2022-11-15T23:25:05.415Z,48.67
2022-11-15T23:28:08.014Z,50.33
2022-11-15T23:31:29.508Z,48.25
2022-11-15T23:34:34.906Z,50.70
2022-11-15T23:37:37.501Z,44.57
2022-11-15T23:40:40.104Z,46.17
2022-11-15T23:43:42.628Z,44.45
2022-11-15T23:46:45.221Z,44.55
2022-11-15T23:49:47.695Z,40.70
2022-11-15T23:52:50.206Z,44.90
2022-11-15T23:56:12.980Z,48.00
2022-11-15T23:59:15.490Z,44.75
